Fort Wayne (FWA/KFWA)

Map

Destinations

Information

Location
Fort Wayne, IN
Local Time
07:38 / 7:38 am
GMT Time
11:38 / 11:38 am
Gates
7
No FAA reported delays
METAR KFWA 241054Z 07008KT 10SM BKN100 OVC220 14/11 A2955 RMK AO2 SLP004 VIRGA E T01440106
TAF KFWA 240538Z 2406/2506 06006KT P6SM BKN100 FM241200 10006KT P6SM OVC050 FM241700 10008KT 5SM -SHRA BR OVC025